createdAt,value
2018-06-09T00:01:00.226Z,68.30
2018-06-09T00:03:28.484Z,68.90
2018-06-09T00:05:56.767Z,68.60
2018-06-09T00:08:25.014Z,69.50
2018-06-09T00:10:53.261Z,69.50
2018-06-09T00:13:21.527Z,69.90
2018-06-09T00:15:49.784Z,69.80
2018-06-09T00:18:18.054Z,70.30
2018-06-09T00:20:46.326Z,70.50
2018-06-09T00:23:14.609Z,70.80
2018-06-09T00:25:43.282Z,70.90
2018-06-09T00:28:11.918Z,71.80
2018-06-09T00:30:40.209Z,71.30
2018-06-09T00:33:08.469Z,71.60
2018-06-09T00:35:36.761Z,72.60
2018-06-09T00:38:05.058Z,73.10
2018-06-09T00:40:33.316Z,73.80
2018-06-09T00:43:02.657Z,73.40
2018-06-09T00:45:30.964Z,73.10
2018-06-09T00:47:59.217Z,73.70
2018-06-09T00:50:27.519Z,73.80
2018-06-09T00:52:55.789Z,74.00
2018-06-09T00:55:24.040Z,73.60
2018-06-09T01:00:20.433Z,75.10
2018-06-09T01:02:48.917Z,75.90
2018-06-09T01:05:17.529Z,76.60
2018-06-09T01:07:46.042Z,76.00
2018-06-09T01:10:14.309Z,76.30
2018-06-09T01:12:42.612Z,76.00
2018-06-09T01:15:10.901Z,76.70
2018-06-09T01:17:39.174Z,76.40
2018-06-09T01:20:07.521Z,76.60
2018-06-09T01:22:35.798Z,75.40
2018-06-09T01:25:04.123Z,75.30
2018-06-09T01:27:32.393Z,76.10
2018-06-09T01:32:29.405Z,76.00
2018-06-09T01:34:57.715Z,77.40
2018-06-09T01:37:25.980Z,77.10
2018-06-09T01:39:54.243Z,77.50
2018-06-09T01:42:22.524Z,77.40
2018-06-09T01:44:50.790Z,77.80
2018-06-09T01:47:19.057Z,78.50
2018-06-09T01:49:48.413Z,78.50
2018-06-09T01:52:16.667Z,78.30
2018-06-09T01:54:45.046Z,78.20
2018-06-09T01:57:13.317Z,78.70
2018-06-09T01:59:41.587Z,78.30
2018-06-09T02:02:09.839Z,79.40
2018-06-09T02:04:38.262Z,79.00
2018-06-09T02:07:06.581Z,79.10
2018-06-09T02:09:34.850Z,79.00
2018-06-09T02:12:03.131Z,79.90
2018-06-09T02:14:31.452Z,79.30
2018-06-09T02:16:59.703Z,80.30
2018-06-09T02:19:27.997Z,80.90
2018-06-09T02:21:56.274Z,79.40
2018-06-09T02:24:24.617Z,80.00
2018-06-09T02:29:20.897Z,80.80
2018-06-09T02:31:49.173Z,80.50
2018-06-09T02:34:17.447Z,80.60
2018-06-09T02:36:45.701Z,81.90
2018-06-09T02:39:14.010Z,82.60
2018-06-09T02:41:42.477Z,83.40
2018-06-09T02:44:10.744Z,83.50
2018-06-09T02:46:39.018Z,82.20
2018-06-09T02:49:08.333Z,81.80
2018-06-09T02:51:36.639Z,81.50
2018-06-09T02:54:05.886Z,82.00
2018-06-09T02:56:34.161Z,82.30
2018-06-09T02:59:02.425Z,82.20
2018-06-09T03:01:30.694Z,82.10
2018-06-09T03:03:59.017Z,82.10
2018-06-09T03:06:27.396Z,81.70
2018-06-09T03:08:55.666Z,81.70
2018-06-09T03:11:23.937Z,81.90
2018-06-09T03:13:52.222Z,81.80
2018-06-09T03:16:20.558Z,82.40
2018-06-09T03:18:48.837Z,82.60
2018-06-09T03:23:45.118Z,82.60
2018-06-09T03:26:13.434Z,82.60
2018-06-09T03:28:41.696Z,82.90
2018-06-09T03:31:09.950Z,82.90
2018-06-09T03:33:38.946Z,83.40
2018-06-09T03:36:07.210Z,83.00
2018-06-09T03:38:35.472Z,83.20
2018-06-09T03:41:03.782Z,84.00
2018-06-09T03:43:32.042Z,82.80
2018-06-09T03:46:00.318Z,82.30
2018-06-09T03:48:28.603Z,82.00
2018-06-09T03:50:56.878Z,81.50
2018-06-09T03:53:25.146Z,81.60
2018-06-09T03:55:53.429Z,81.60
2018-06-09T03:58:25.968Z,81.90
2018-06-09T04:00:54.577Z,82.30
2018-06-09T04:03:23.137Z,82.20
2018-06-09T04:08:19.625Z,82.10
2018-06-09T04:10:47.885Z,82.60
2018-06-09T04:13:16.161Z,82.90
2018-06-09T04:15:44.450Z,82.90
2018-06-09T04:18:12.711Z,82.80
2018-06-09T04:20:41.036Z,82.40
2018-06-09T04:25:37.251Z,81.90
2018-06-09T04:28:05.558Z,82.00
2018-06-09T04:30:33.838Z,82.20
2018-06-09T04:33:02.091Z,81.70
2018-06-09T04:35:30.434Z,81.90
2018-06-09T04:37:58.761Z,81.80
2018-06-09T04:40:27.060Z,81.20
2018-06-09T04:42:55.315Z,81.10
2018-06-09T04:45:23.580Z,81.10
2018-06-09T04:47:51.844Z,81.30
2018-06-09T04:50:20.090Z,81.30
2018-06-09T04:52:48.467Z,80.70
2018-06-09T04:55:16.715Z,79.80
2018-06-09T05:00:12.985Z,79.80
2018-06-09T05:02:41.297Z,80.00
2018-06-09T05:05:09.562Z,79.60
2018-06-09T05:07:37.829Z,79.00
2018-06-09T05:10:07.018Z,79.40
2018-06-09T05:12:35.271Z,80.00
2018-06-09T05:15:03.591Z,78.40
2018-06-09T05:17:31.841Z,78.10
2018-06-09T05:20:00.110Z,78.30
2018-06-09T05:22:28.406Z,77.90
2018-06-09T05:24:56.714Z,76.40
2018-06-09T05:29:53.057Z,75.80
2018-06-09T05:32:21.971Z,76.10
2018-06-09T05:34:50.225Z,76.20
2018-06-09T05:37:18.537Z,75.40
2018-06-09T05:42:14.808Z,76.30
2018-06-09T05:44:43.077Z,75.90
2018-06-09T05:47:11.334Z,74.20
2018-06-09T05:52:07.577Z,74.20
2018-06-09T05:54:35.849Z,74.60
2018-06-09T05:57:04.142Z,73.50
2018-06-09T05:59:32.409Z,72.90
2018-06-09T06:02:00.701Z,72.10
2018-06-09T06:04:28.950Z,72.90
2018-06-09T06:06:57.249Z,71.50
2018-06-09T06:09:25.554Z,71.70
2018-06-09T06:11:54.159Z,71.90
2018-06-09T06:14:22.452Z,71.30
2018-06-09T06:19:18.766Z,70.90
2018-06-09T06:21:47.057Z,69.90
2018-06-09T06:24:15.387Z,70.30
2018-06-09T06:26:43.667Z,69.80
2018-06-09T06:29:11.946Z,69.70
2018-06-09T06:31:40.195Z,70.40
2018-06-09T06:34:08.439Z,69.50
2018-06-09T06:36:36.697Z,70.10
2018-06-09T06:39:08.215Z,68.90
2018-06-09T06:41:36.636Z,68.90
2018-06-09T06:44:04.997Z,70.80
2018-06-09T06:49:01.349Z,73.80
2018-06-09T06:51:29.596Z,74.50
2018-06-09T06:53:57.882Z,75.00
2018-06-09T06:56:26.315Z,74.60
2018-06-09T06:58:54.570Z,75.30
2018-06-09T07:01:22.833Z,77.00
2018-06-09T07:03:51.117Z,76.30
2018-06-09T07:06:19.419Z,76.60
2018-06-09T07:08:47.695Z,77.10
2018-06-09T07:13:44.103Z,77.30
2018-06-09T07:16:12.369Z,77.00
2018-06-09T07:18:40.687Z,76.00
2018-06-09T07:21:08.931Z,75.60
2018-06-09T07:23:37.189Z,74.80
2018-06-09T07:26:05.696Z,74.40
2018-06-09T07:28:33.961Z,74.90
2018-06-09T07:35:58.312Z,74.60
2018-06-09T07:38:26.761Z,73.00
2018-06-09T07:40:55.023Z,73.90
2018-06-09T07:43:23.289Z,71.70
2018-06-09T07:45:51.589Z,70.70
2018-06-09T07:48:20.076Z,69.40
2018-06-09T07:50:48.344Z,69.10
2018-06-09T07:53:16.597Z,67.90
2018-06-09T07:55:44.865Z,64.80
2018-06-09T07:58:13.121Z,63.20
2018-06-09T08:00:41.378Z,61.30
2018-06-09T08:03:09.865Z,59.70
2018-06-09T08:05:38.097Z,57.10
2018-06-09T08:08:06.340Z,53.90
2018-06-09T08:10:34.606Z,51.70
2018-06-09T08:13:02.882Z,51.60
2018-06-09T08:15:31.381Z,51.70
2018-06-09T08:20:27.779Z,54.90
2018-06-09T08:22:56.030Z,53.90
2018-06-09T08:25:24.397Z,52.90
2018-06-09T08:27:52.634Z,53.20
2018-06-09T08:30:20.910Z,54.00
2018-06-09T08:32:49.194Z,52.90
2018-06-09T08:35:17.473Z,50.10
2018-06-09T08:37:45.765Z,46.40
2018-06-09T08:40:14.023Z,46.50
2018-06-09T08:42:42.318Z,46.10
2018-06-09T08:45:10.610Z,43.10
2018-06-09T08:47:38.873Z,40.50
2018-06-09T08:50:07.137Z,41.00
2018-06-09T08:52:35.390Z,40.80
2018-06-09T08:55:03.698Z,39.60
2018-06-09T08:57:31.965Z,40.60
2018-06-09T09:00:00.222Z,42.80
2018-06-09T09:02:28.465Z,43.00
2018-06-09T09:04:56.714Z,45.00
2018-06-09T09:12:20.929Z,43.80
2018-06-09T09:14:49.205Z,44.80
2018-06-09T09:17:17.814Z,43.20
2018-06-09T09:22:14.038Z,42.60
2018-06-09T09:24:42.298Z,43.80
2018-06-09T09:27:10.581Z,44.90
2018-06-09T09:29:38.882Z,46.10
2018-06-09T09:32:07.217Z,46.20
2018-06-09T09:34:35.446Z,48.80
2018-06-09T09:37:03.714Z,49.10
2018-06-09T09:39:31.993Z,51.70
2018-06-09T09:42:00.249Z,53.80
2018-06-09T09:44:29.213Z,52.90
2018-06-09T09:49:25.733Z,49.70
2018-06-09T09:51:54.014Z,51.00
2018-06-09T09:54:22.286Z,52.40
2018-06-09T09:56:50.572Z,53.10
2018-06-09T09:59:18.821Z,54.70
2018-06-09T10:01:47.128Z,56.50
2018-06-09T10:04:15.389Z,57.90
2018-06-09T10:06:43.657Z,58.20
2018-06-09T10:09:11.942Z,58.80
2018-06-09T10:11:40.191Z,56.60
2018-06-09T10:16:36.507Z,53.10
2018-06-09T10:19:05.173Z,52.30
2018-06-09T10:21:33.421Z,49.40
2018-06-09T10:24:01.734Z,46.20
2018-06-09T10:26:30.002Z,42.50
2018-06-09T10:28:58.250Z,40.20
2018-06-09T10:31:26.521Z,40.50
2018-06-09T10:33:54.838Z,37.70
2018-06-09T10:36:23.166Z,35.50
2018-06-09T10:38:51.428Z,35.70
2018-06-09T10:41:19.705Z,35.30
2018-06-09T10:43:48.022Z,33.20
2018-06-09T10:46:16.317Z,34.60
2018-06-09T10:48:44.577Z,34.10
2018-06-09T10:51:12.854Z,33.40
2018-06-09T10:53:41.209Z,35.70
2018-06-09T10:56:09.458Z,34.40
2018-06-09T10:58:38.417Z,34.40
2018-06-09T11:01:06.697Z,32.80
2018-06-09T11:03:35.110Z,31.20
2018-06-09T11:06:03.335Z,32.40
2018-06-09T11:08:31.602Z,32.80
2018-06-09T11:10:59.877Z,34.70
2018-06-09T11:15:56.106Z,32.00
2018-06-09T11:18:24.427Z,31.70
2018-06-09T11:20:52.905Z,31.10
2018-06-09T11:23:21.189Z,30.70
2018-06-09T11:25:49.433Z,29.00
2018-06-09T11:28:17.690Z,29.90
2018-06-09T11:30:45.961Z,30.30
2018-06-09T11:33:14.304Z,32.80
2018-06-09T11:38:10.663Z,33.30
2018-06-09T11:40:38.905Z,31.60
2018-06-09T11:45:47.181Z,31.40
2018-06-09T11:48:15.461Z,30.80
2018-06-09T11:50:43.834Z,29.60
2018-06-09T11:55:40.107Z,34.20
2018-06-09T11:58:08.365Z,34.30
2018-06-09T12:00:36.653Z,33.00
2018-06-09T12:03:06.020Z,31.60
2018-06-09T12:05:34.305Z,32.30
2018-06-09T12:08:02.514Z,33.60
2018-06-09T12:10:30.866Z,35.90
2018-06-09T12:12:59.136Z,37.70
2018-06-09T12:15:27.426Z,41.00
2018-06-09T12:17:55.717Z,42.60
2018-06-09T12:20:23.990Z,43.90
2018-06-09T12:22:52.375Z,46.40
2018-06-09T12:25:20.626Z,47.80
2018-06-09T12:27:49.031Z,47.80
2018-06-09T12:30:17.326Z,49.00
2018-06-09T12:32:45.614Z,48.90
2018-06-09T12:35:14.962Z,50.00
2018-06-09T12:37:43.258Z,49.50
2018-06-09T12:40:11.538Z,50.70
2018-06-09T12:42:40.626Z,52.20
2018-06-09T12:45:09.538Z,51.80
2018-06-09T12:50:06.617Z,53.00
2018-06-09T12:52:34.896Z,53.20
2018-06-09T12:55:03.154Z,54.00
2018-06-09T12:57:31.379Z,54.10
2018-06-09T12:59:59.686Z,55.60
2018-06-09T13:04:55.977Z,57.40
2018-06-09T13:07:24.229Z,58.20
2018-06-09T13:09:52.502Z,58.90
2018-06-09T13:17:16.793Z,60.50
2018-06-09T13:19:45.044Z,60.60
2018-06-09T13:22:13.310Z,60.80
2018-06-09T13:27:11.008Z,60.90
2018-06-09T13:29:39.682Z,59.70
2018-06-09T13:32:08.259Z,60.50
2018-06-09T13:34:36.686Z,61.30
2018-06-09T13:37:04.943Z,61.10
2018-06-09T13:42:02.285Z,60.20
2018-06-09T13:44:30.635Z,61.00
2018-06-09T13:46:58.861Z,62.00
2018-06-09T13:49:27.302Z,62.50
2018-06-09T13:51:55.671Z,77.50
2018-06-09T13:54:24.110Z,85.40
2018-06-09T13:56:52.382Z,91.90
2018-06-09T13:59:21.052Z,94.80
2018-06-09T14:01:49.333Z,96.50
2018-06-09T14:04:17.588Z,98.10
2018-06-09T14:06:45.844Z,98.10
2018-06-09T14:09:14.146Z,98.60
2018-06-09T14:11:42.409Z,98.40
2018-06-09T14:16:38.746Z,98.80
2018-06-09T14:21:35.061Z,99.30
2018-06-09T14:24:03.313Z,99.90
2018-06-09T14:26:31.807Z,99.90
2018-06-09T14:29:00.083Z,99.40
2018-06-09T14:33:56.329Z,99.90
2018-06-09T14:36:24.610Z,99.90
2018-06-09T14:41:20.922Z,99.90
2018-06-09T14:43:49.177Z,99.90
2018-06-09T14:46:17.590Z,99.90
2018-06-09T14:48:45.873Z,99.90
2018-06-09T14:51:14.167Z,99.90
2018-06-09T14:53:42.427Z,99.80
2018-06-09T14:56:10.662Z,99.90
2018-06-09T14:58:38.941Z,99.70
2018-06-09T15:03:35.222Z,99.90
2018-06-09T15:06:03.694Z,99.90
2018-06-09T15:08:31.993Z,99.90
2018-06-09T15:11:00.244Z,99.90
2018-06-09T15:13:28.794Z,99.90
2018-06-09T15:15:57.077Z,99.90
2018-06-09T15:18:25.370Z,99.90
2018-06-09T15:20:53.673Z,99.90
2018-06-09T15:25:49.993Z,99.90
2018-06-09T15:28:18.326Z,99.90
2018-06-09T15:30:46.574Z,99.90
2018-06-09T15:33:14.953Z,99.90
2018-06-09T15:35:43.232Z,99.90
2018-06-09T15:38:11.489Z,99.50
2018-06-09T15:40:39.753Z,99.10
2018-06-09T15:43:08.050Z,99.00
2018-06-09T15:45:36.322Z,98.20
2018-06-09T15:48:04.598Z,98.70
2018-06-09T15:50:32.973Z,98.80
2018-06-09T15:53:01.215Z,98.20
2018-06-09T15:55:29.530Z,98.20
2018-06-09T15:57:57.825Z,98.60
2018-06-09T16:00:26.101Z,98.40
2018-06-09T16:02:54.539Z,97.00
2018-06-09T16:07:50.897Z,97.70
2018-06-09T16:12:47.141Z,96.70
2018-06-09T16:15:15.406Z,95.70
2018-06-09T16:17:44.176Z,96.80
2018-06-09T16:20:12.542Z,96.50
2018-06-09T16:22:40.754Z,96.50
2018-06-09T16:25:09.096Z,97.00
2018-06-09T16:30:06.880Z,97.60
2018-06-09T16:37:31.136Z,97.30
2018-06-09T16:39:59.389Z,97.70
2018-06-09T16:42:27.642Z,97.00
2018-06-09T16:44:55.950Z,96.10
2018-06-09T16:47:24.355Z,97.00
2018-06-09T16:49:52.622Z,96.50
2018-06-09T16:52:20.892Z,96.50
2018-06-09T16:54:49.208Z,97.00
2018-06-09T16:57:17.529Z,97.00
2018-06-09T16:59:45.829Z,96.10
2018-06-09T17:02:14.077Z,97.00
2018-06-09T17:04:42.353Z,95.20
2018-06-09T17:07:10.646Z,95.90
2018-06-09T17:09:39.033Z,96.10
2018-06-09T17:12:07.398Z,96.30
2018-06-09T17:14:35.677Z,96.20
2018-06-09T17:17:04.434Z,96.10
2018-06-09T17:19:32.754Z,96.80
2018-06-09T17:22:01.156Z,96.90
2018-06-09T17:24:29.469Z,96.90
2018-06-09T17:29:25.897Z,98.10
2018-06-09T17:31:54.329Z,97.30
2018-06-09T17:34:22.640Z,97.20
2018-06-09T17:36:51.065Z,96.90
2018-06-09T17:39:19.345Z,97.20
2018-06-09T17:41:47.685Z,97.10
2018-06-09T17:44:16.090Z,98.00
2018-06-09T17:46:44.357Z,97.60
2018-06-09T17:49:12.726Z,97.70
2018-06-09T17:51:41.089Z,97.60
2018-06-09T17:54:09.413Z,97.40
2018-06-09T17:56:37.755Z,97.20
2018-06-09T17:59:06.065Z,97.30
2018-06-09T18:01:34.354Z,97.10
2018-06-09T18:04:03.178Z,97.40
2018-06-09T18:06:31.451Z,97.80
2018-06-09T18:08:59.747Z,98.20
2018-06-09T18:11:28.058Z,97.80
2018-06-09T18:13:56.371Z,97.60
2018-06-09T18:16:24.707Z,97.50
2018-06-09T18:21:21.268Z,97.90
2018-06-09T18:23:49.566Z,98.40
2018-06-09T18:26:17.871Z,98.10
2018-06-09T18:28:46.119Z,98.30
2018-06-09T18:31:14.407Z,98.50
2018-06-09T18:33:43.712Z,98.30
2018-06-09T18:36:11.978Z,98.40
2018-06-09T18:41:08.326Z,98.30
2018-06-09T18:43:36.557Z,98.60
2018-06-09T18:46:04.877Z,99.00
2018-06-09T18:48:33.230Z,99.10
2018-06-09T18:51:01.502Z,99.40
2018-06-09T18:53:29.818Z,99.00
2018-06-09T18:55:58.091Z,99.20
2018-06-09T18:58:26.388Z,99.10
2018-06-09T19:00:54.719Z,99.00
2018-06-09T19:03:23.001Z,99.20
2018-06-09T19:05:51.246Z,99.30
2018-06-09T19:10:47.536Z,99.50
2018-06-09T19:13:15.775Z,99.70
2018-06-09T19:18:12.124Z,99.60
2018-06-09T19:20:40.398Z,99.60
2018-06-09T19:23:08.661Z,99.40
2018-06-09T19:25:36.990Z,99.20
2018-06-09T19:30:33.373Z,99.40
2018-06-09T19:33:01.846Z,99.40
2018-06-09T19:35:30.269Z,99.40
2018-06-09T19:37:58.547Z,99.50
2018-06-09T19:40:26.826Z,99.20
2018-06-09T19:42:55.125Z,99.00
2018-06-09T19:45:23.470Z,99.40
2018-06-09T19:47:52.256Z,99.00
2018-06-09T19:50:21.005Z,99.10
2018-06-09T19:52:49.290Z,99.40
2018-06-09T19:55:17.578Z,99.30
2018-06-09T19:57:45.864Z,99.20
2018-06-09T20:05:10.216Z,98.90
2018-06-09T20:07:38.528Z,99.20
2018-06-09T20:10:06.824Z,99.10
2018-06-09T20:12:35.118Z,98.90
2018-06-09T20:15:03.465Z,99.30
2018-06-09T20:17:31.725Z,99.20
2018-06-09T20:22:28.018Z,99.30
2018-06-09T20:24:56.404Z,98.90
2018-06-09T20:27:24.661Z,98.80
2018-06-09T20:29:52.942Z,98.20
2018-06-09T20:32:21.315Z,98.90
2018-06-09T20:34:49.694Z,98.60
2018-06-09T20:39:46.233Z,98.60
2018-06-09T20:42:14.513Z,98.50
2018-06-09T20:44:42.805Z,98.50
2018-06-09T20:49:39.187Z,98.50
2018-06-09T20:52:07.443Z,98.10
2018-06-09T20:57:04.294Z,98.50
2018-06-09T20:59:32.562Z,98.70
2018-06-09T21:02:00.889Z,98.70
2018-06-09T21:06:57.304Z,99.20
2018-06-09T21:09:25.649Z,99.10
2018-06-09T21:11:54.809Z,98.80
2018-06-09T21:14:23.222Z,99.10
2018-06-09T21:16:51.757Z,98.90
2018-06-09T21:19:20.021Z,98.80
2018-06-09T21:21:48.366Z,98.90
2018-06-09T21:26:49.956Z,98.90
2018-06-09T21:29:24.070Z,98.80
2018-06-09T21:31:52.336Z,98.70
2018-06-09T21:37:05.886Z,98.70
2018-06-09T21:39:39.789Z,98.80
2018-06-09T21:44:52.273Z,98.80
2018-06-09T21:47:20.681Z,98.30
2018-06-09T21:54:44.994Z,98.70
2018-06-09T21:57:13.274Z,98.80
2018-06-09T21:59:41.577Z,99.10
2018-06-09T22:02:09.898Z,98.80
2018-06-09T22:04:38.194Z,99.00
2018-06-09T22:09:34.422Z,99.00
2018-06-09T22:12:02.675Z,98.70
2018-06-09T22:14:30.943Z,98.90
2018-06-09T22:16:59.174Z,99.10
2018-06-09T22:19:27.523Z,99.30
2018-06-09T22:21:55.822Z,99.30
2018-06-09T22:26:52.186Z,98.50
2018-06-09T22:29:20.469Z,98.70
2018-06-09T22:34:16.738Z,98.80
2018-06-09T22:36:45.026Z,99.00
2018-06-09T22:39:13.345Z,98.70
2018-06-09T22:41:41.796Z,98.90
2018-06-09T22:44:10.009Z,99.00
2018-06-09T22:46:38.326Z,98.80
2018-06-09T22:54:03.106Z,98.50
2018-06-09T22:56:31.391Z,99.00
2018-06-09T22:58:59.670Z,99.00
2018-06-09T23:01:27.921Z,98.50
2018-06-09T23:03:56.181Z,98.90
2018-06-09T23:06:24.462Z,98.90
2018-06-09T23:08:52.773Z,98.40
2018-06-09T23:13:51.304Z,98.90
2018-06-09T23:16:20.494Z,98.60
2018-06-09T23:18:50.109Z,99.00
2018-06-09T23:21:18.387Z,99.10
2018-06-09T23:23:46.627Z,98.90
2018-06-09T23:26:14.877Z,98.70
2018-06-09T23:28:43.137Z,98.30
2018-06-09T23:31:11.868Z,98.70
2018-06-09T23:36:11.698Z,98.50
2018-06-09T23:38:40.676Z,98.60
2018-06-09T23:41:09.341Z,98.60
2018-06-09T23:43:37.738Z,98.90
2018-06-09T23:46:06.010Z,98.90
2018-06-09T23:48:34.389Z,98.50
2018-06-09T23:51:02.674Z,98.30
2018-06-09T23:53:30.930Z,98.20
